Saturday, August 18, 2018, 9:57 AM EDT
Back to Local

KFZY, Fulton Oswego County Airport

Location: Fulton, NY, United States Lat: 43.35
Local Time: 9:57 AM EDT (13:57 GMT) Lon: -76.383
Time Zone: US/Eastern Elev: 475 ft

Show me the last for .
Show Decoded

2018-08-18 09:14 METAR KFZY 181314Z AUTO 36006KT 10SM OVC009 18/16 A2991 RMK AO2 CIG 006V013
                 T01830156 =
2018-08-18 08:54 METAR KFZY 181254Z AUTO 01006KT 10SM OVC010 19/16 A2991 RMK AO2 RAE15B26E35 CIG
                 007V014 SLP126 P0000 T01890161 =
2018-08-18 08:34 METAR KFZY 181234Z AUTO 36005KT 10SM -RA BKN010 OVC018 19/16 A2991 RMK AO2
                 RAE15B26 CIG 006V014 P0000 T01890161 =
2018-08-18 08:27 METAR KFZY 181227Z AUTO 35006KT 10SM -RA FEW008 OVC015 19/16 A2991 RMK AO2
                 RAE15B26 P0000 T01890161 =
2018-08-18 08:25 METAR KFZY 181225Z AUTO 36005KT 10SM BKN010 OVC018 19/16 A2991 RMK AO2 RAE15 CIG
                 006V013 P0000 T01890161 =
2018-08-18 07:54 METAR KFZY 181154Z AUTO 02006KT 10SM -RA BKN008 OVC012 18/16 A2991 RMK AO2 CIG
                 006V011 SLP127 P0001 60008 70044 T01830161 10200 20183 53009 =
2018-08-18 07:43 METAR KFZY 181143Z AUTO 02005KT 10SM -RA BKN008 OVC014 18/16 A2991 RMK AO2 CIG
                 006V011 P0001 T01830161 =
2018-08-18 07:31 METAR KFZY 181131Z AUTO 03005KT 10SM -RA FEW008 BKN014 OVC110 18/16 A2991 RMK
                 AO2 P0001 T01830161 =
2018-08-18 07:22 METAR KFZY 181122Z AUTO 02004KT 10SM -RA FEW008 BKN016 BKN120 18/16 A2991 RMK
                 AO2 P0001 T01830161 =
2018-08-18 06:54 METAR KFZY 181054Z AUTO 02007KT 10SM -RA BKN110 18/16 A2990 RMK AO2 RAB05 SLP121
                 P0004 T01830161 =
2018-08-18 06:35 METAR KFZY 181035Z AUTO 02006KT 4SM RA SCT008 BKN095 OVC110 19/16 A2990 RMK AO2
                 RAB05 P0003 T01940161 =
2018-08-18 05:57 METAR KFZY 180957Z AUTO 36004KT 10SM BKN007 BKN017 BKN100 19/17 A2989 RMK AO2
                 CIG 006V012 T01890167 =
2018-08-18 05:54 METAR KFZY 180954Z AUTO 36005KT 10SM SCT007 BKN070 BKN100 19/17 A2989 RMK AO2
                 SLP118 T01940167 =
2018-08-18 05:45 METAR KFZY 180945Z AUTO 01007KT 10SM SCT007 BKN017 OVC070 19/17 A2989 RMK AO2
                 CIG 011V019 T01940167 =
2018-08-18 05:43 METAR KFZY 180943Z AUTO 01007KT 10SM BKN007 BKN012 OVC070 19/17 A2989 RMK AO2
                 CIG 006V009 T01940167 =
2018-08-18 05:28 METAR KFZY 180928Z AUTO 36005KT 10SM FEW007 BKN070 19/17 A2989 RMK AO2 T01940172
                 =
2018-08-18 04:54 METAR KFZY 180854Z AUTO 35005KT 10SM FEW011 BKN110 19/17 A2988 RMK AO2
                 RAB0757E23 SLP116 P0003 60003 T01940167 53000 =
2018-08-18 03:54 METAR KFZY 180754Z AUTO 34007KT 10SM FEW055 SCT070 OVC110 19/17 A2987 RMK AO2
                 RAB24E54 SLP113 P0000 T01940172 =
2018-08-18 03:22 METAR KFZY 180722Z AUTO 32005KT 10SM FEW009 BKN055 OVC070 19/17 A2988 RMK AO2
                 T01940172 =
2018-08-18 02:54 METAR KFZY 180654Z AUTO 35003KT 10SM BKN048 BKN120 19/17 A2987 RMK AO2
                 RAB0559E25 SLP113 P0000 T01940172 =
2018-08-18 01:54 METAR KFZY 180554Z AUTO 36005KT 10SM SCT032 OVC038 20/18 A2988 RMK AO2
                 RAB05E14B31E49 SLP116 P0000 60013 T02000178 10233 20200 50001 =
2018-08-18 00:54 METAR KFZY 180454Z AUTO 36005KT 10SM BKN020 OVC028 20/18 A2988 RMK AO2 RAE48
                 SLP117 P0013 T02000178 402830200 =
2018-08-18 00:31 METAR KFZY 180431Z AUTO 36007KT 7SM -RA SCT020 BKN028 OVC042 20/18 A2988 RMK AO2
                 P0012 T02000178 =
2018-08-18 00:24 METAR KFZY 180424Z AUTO 34007KT 6SM -RA BR FEW009 BKN033 OVC055 21/18 A2989 RMK
                 AO2 P0011 T02060183 =
2018-08-18 00:16 METAR KFZY 180416Z AUTO 01006KT 2SM +RA BR SCT006 BKN021 OVC031 21/18 A2988 RMK
                 AO2 P0011 T02060183 =
2018-08-18 00:06 METAR KFZY 180406Z AUTO 36008KT 4SM +RA SCT006 BKN013 OVC026 21/18 A2989 RMK AO2
                 P0002 T02110183 =
2018-08-17 23:59 METAR KFZY 180359Z AUTO 36012KT 9SM -RA BKN008 OVC015 22/19 A2988 RMK AO2 CIG
                 005V011 P0000 T02170189 =
2018-08-17 23:54 METAR KFZY 180354Z AUTO 36008KT 10SM -RA SCT006 OVC015 22/20 A2988 RMK AO2 RAB50
                 SLP116 P0000 T02220200 =
2018-08-17 23:22 METAR KFZY 180322Z AUTO 31005KT 10SM SCT008 BKN016 OVC022 23/21 A2988 RMK AO2
                 T02330206 =
2018-08-17 22:54 METAR KFZY 180254Z AUTO 27005KT 10SM SCT013 BKN027 OVC085 23/21 A2988 RMK AO2
                 LTG DSNT N AND NE SLP114 T02330206 53005 =
2018-08-17 21:54 METAR KFZY 180154Z AUTO 19006KT 10SM BKN090 23/20 A2987 RMK AO2 LTG DSNT N AND
                 NW SLP111 T02280200 =
2018-08-17 20:54 METAR KFZY 180054Z AUTO 22004KT 10SM SCT033 SCT055 23/20 A2987 RMK AO2 SLP112
                 T02280200 =
2018-08-17 19:54 METAR KFZY 172354Z AUTO 21003KT 10SM FEW080 BKN100 23/20 A2986 RMK AO2 RAB01E39
                 SLP109 P0001 60012 T02330200 10283 20233 58002 =
2018-08-17 18:54 METAR KFZY 172254Z AUTO 23004KT 9SM OVC070 26/22 A2987 RMK AO2 LTG DSNT SE
                 SLP112 T02560222 =
2018-08-17 17:54 METAR KFZY 172154Z AUTO 00000KT 10SM FEW050 BKN100 BKN120 26/22 A2986 RMK AO2
                 RAE2059 TSE2055 SLP110 P0000 T02560222 =
2018-08-17 17:07 METAR KFZY 172107Z AUTO 32003KT 10SM FEW009 SCT070 BKN100 26/22 A2987 RMK AO2
                 LTG DSNT NE AND E RAE2059 TSE2055 P0000 T02610222 =
2018-08-17 17:01 METAR KFZY 172101Z AUTO VRB03KT 10SM VCTS FEW015 SCT050 BKN110 26/22 A2987 RMK
                 AO2 LTG DSNT NE AND E RAE2059 TSE2055 P0000 T02610222 =
2018-08-17 16:54 METAR KFZY 172054Z AUTO VRB03KT 8SM -TSRA FEW009 BKN044 OVC110 26/22 A2987 RMK
                 AO2 LTG DSNT E TSB33 SLP111 P0010 60011 T02560222 56007 =
2018-08-17 16:49 METAR KFZY 172049Z AUTO 34004KT 8SM -TSRA FEW008 BKN040 OVC070 26/23 A2987 RMK
                 AO2 LTG DSNT E AND SE TSB33 P0010 =
2018-08-17 16:36 METAR KFZY 172036Z AUTO 30007KT 3SM -TSRA FEW031 BKN040 OVC070 26/22 A2987 RMK
                 AO2 LTG DSNT NE-SE TSB33 P0010 T02610222 =
2018-08-17 16:34 METAR KFZY 172034Z AUTO 29006KT 1 1/2SM -TSRA SCT033 BKN040 OVC070 26/22 A2987
                 RMK AO2 LTG DSNT NE AND E TSB33 P0010 T02560217 =
2018-08-17 16:32 METAR KFZY 172032Z AUTO 28004KT 1SM VCTS -RA SCT033 BKN042 OVC070 26/22 A2987
                 RMK AO2 LTG DSNT NE AND E P0010 T02560217 =
2018-08-17 16:26 METAR KFZY 172026Z AUTO 26007KT 3/4SM +RA FEW033 BKN044 OVC080 26/23 A2987 RMK
                 AO2 LTG DSNT NE AND E P0009 T02610228 =
2018-08-17 16:23 METAR KFZY 172023Z AUTO 25004KT 1 1/2SM RA SCT031 BKN044 OVC060 26/23 A2987 RMK
                 AO2 LTG DSNT NE AND E P0005 T02610228 =
2018-08-17 15:54 METAR KFZY 171954Z AUTO 22003KT 8SM -RA SCT025 BKN039 OVC050 26/22 A2987 RMK AO2
                 LTG DSNT NE-S RAE06B23 TSB08E23B34E54 SLP113 P0001 T02610222 =
2018-08-17 15:34 METAR KFZY 171934Z AUTO 28006KT 5SM -TSRA SCT031 BKN040 OVC070 27/22 A2988 RMK
                 AO2 RAE06B23 TSB08E23B34 P0000 T02670217 =
2018-08-17 15:29 METAR KFZY 171929Z AUTO 28005KT 8SM -RA SCT034 BKN047 OVC110 28/21 A2988 RMK AO2
                 LTG DSNT E RAE06B23 TSB08E23 P0000 T02780211 =
2018-08-17 15:14 METAR KFZY 171914Z AUTO 25006KT 10SM TS FEW034 BKN065 OVC075 28/22 A2988 RMK AO2
                 LTG DSNT S RAE06 TSB08 P0000 T02830217 =
2018-08-17 14:54 METAR KFZY 171854Z AUTO 23005KT 10SM -RA FEW027 SCT033 OVC065 28/21 A2989 RMK
                 AO2 RAB54 SLP119 P0000 T02780211 =
2018-08-17 14:34 METAR KFZY 171834Z AUTO 23005KT 10SM BKN030 OVC036 28/21 A2990 RMK AO2 T02780211
                 =
2018-08-17 14:13 METAR KFZY 171813Z AUTO 20008KT 10SM BKN028 BKN036 BKN085 28/21 A2990 RMK AO2
                 T02780206 =
2018-08-17 13:54 METAR KFZY 171754Z AUTO 21009KT 10SM FEW026 SCT040 BKN080 28/21 A2990 RMK AO2
                 SLP123 60011 T02830211 10283 20211 58020 =
2018-08-17 12:54 METAR KFZY 171654Z AUTO 21009KT 10SM FEW070 SCT090 BKN110 27/21 A2992 RMK AO2
                 SLP130 T02670211 =
2018-08-17 11:54 METAR KFZY 171554Z AUTO 17007KT 10SM BKN080 BKN100 25/21 A2995 RMK AO2 SLP137
                 T02500206 =
2018-08-17 10:54 METAR KFZY 171454Z AUTO 15004KT 9SM SCT035 OVC085 22/19 A2996 RMK AO2 RAB03E32
                 SLP143 P0007 60011 T02220194 58017 =
2018-08-17 10:21 METAR KFZY 171421Z AUTO VRB03KT 3SM -RA BR OVC034 21/19 A2998 RMK AO2 RAB03
                 P0006 T02110189 =
2018-08-17 10:09 METAR KFZY 171409Z AUTO VRB04KT 1 3/4SM +RA BR OVC035 21/19 A2998 RMK AO2 RAB03
                 P0004 T02110189 =

Support USWX by starting your Amazon purchase here.